createdAt,value
2022-08-28T00:00:21.217Z,6.13
2022-08-28T00:01:03.182Z,5.78
2022-08-28T00:01:44.874Z,10.02
2022-08-28T00:02:26.806Z,7.10
2022-08-28T00:03:10.341Z,7.90
2022-08-28T00:03:52.181Z,7.35
2022-08-28T00:04:35.854Z,5.90
2022-08-28T00:05:20.696Z,9.07
2022-08-28T00:06:02.574Z,7.68
2022-08-28T00:06:44.475Z,5.73
2022-08-28T00:07:26.925Z,5.63
2022-08-28T00:08:11.312Z,6.63
2022-08-28T00:08:53.134Z,6.63
2022-08-28T00:09:34.913Z,6.07
2022-08-28T00:10:19.019Z,5.63
2022-08-28T00:11:01.066Z,5.82
2022-08-28T00:11:43.146Z,8.90
2022-08-28T00:12:24.859Z,7.47
2022-08-28T00:13:08.939Z,7.28
2022-08-28T00:13:51.186Z,6.93
2022-08-28T00:14:34.683Z,6.60
2022-08-28T00:15:20.597Z,7.55
2022-08-28T00:16:02.932Z,8.35
2022-08-28T00:16:45.743Z,7.35
2022-08-28T00:17:27.453Z,6.43
2022-08-28T00:18:09.250Z,9.10
2022-08-28T00:18:51.404Z,7.25
2022-08-28T00:19:38.482Z,5.28
2022-08-28T00:20:21.373Z,7.00
2022-08-28T00:21:04.415Z,8.20
2022-08-28T00:21:47.242Z,6.20
2022-08-28T00:22:29.031Z,8.40
2022-08-28T00:23:10.820Z,7.28
2022-08-28T00:23:53.652Z,5.90
2022-08-28T00:24:36.735Z,6.65
2022-08-28T00:25:20.298Z,9.73
2022-08-28T00:26:02.230Z,12.32
2022-08-28T00:27:03.207Z,9.57
2022-08-28T00:27:54.936Z,8.02
2022-08-28T00:28:36.823Z,6.93
2022-08-28T00:29:18.547Z,7.00
2022-08-28T00:30:00.279Z,7.57
2022-08-28T00:30:48.820Z,7.30
2022-08-28T00:31:34.092Z,5.82
2022-08-28T00:32:15.893Z,4.10
2022-08-28T00:33:01.691Z,6.03
2022-08-28T00:33:43.478Z,4.90
2022-08-28T00:34:33.129Z,5.18
2022-08-28T00:35:17.623Z,7.03
2022-08-28T00:36:00.865Z,9.65
2022-08-28T00:36:42.578Z,8.95
2022-08-28T00:37:24.729Z,4.72
2022-08-28T00:38:07.652Z,6.18
2022-08-28T00:38:50.433Z,9.15
2022-08-28T00:39:32.584Z,9.85
2022-08-28T00:40:15.847Z,9.05
2022-08-28T00:41:04.044Z,5.00
2022-08-28T00:41:46.859Z,6.30
2022-08-28T00:42:28.627Z,5.63
2022-08-28T00:43:19.350Z,5.38
2022-08-28T00:44:20.461Z,4.30
2022-08-28T00:45:02.337Z,5.90
2022-08-28T00:45:44.036Z,4.55
2022-08-28T00:46:25.825Z,5.53
2022-08-28T00:47:08.530Z,7.30
2022-08-28T00:47:51.004Z,6.85
2022-08-28T00:48:32.938Z,5.65
2022-08-28T00:49:18.056Z,5.78
2022-08-28T00:49:59.804Z,5.72
2022-08-28T00:51:05.149Z,7.68
2022-08-28T00:52:08.087Z,6.28
2022-08-28T00:52:53.107Z,6.45
2022-08-28T00:53:34.818Z,6.18
2022-08-28T00:54:19.096Z,5.45
2022-08-28T00:55:08.584Z,5.03
2022-08-28T00:55:50.437Z,6.20
2022-08-28T00:56:33.005Z,7.30
2022-08-28T00:57:35.494Z,6.90
2022-08-28T00:58:17.947Z,7.53
2022-08-28T00:59:05.591Z,7.60
2022-08-28T00:59:47.575Z,7.38
2022-08-28T01:00:35.738Z,6.75
2022-08-28T01:01:18.133Z,8.05
2022-08-28T01:02:00.202Z,6.65
2022-08-28T01:02:42.125Z,7.15
2022-08-28T01:03:25.029Z,6.10
2022-08-28T01:04:09.229Z,6.22
2022-08-28T01:04:51.187Z,5.30
2022-08-28T01:05:35.331Z,6.35
2022-08-28T01:06:20.123Z,7.53
2022-08-28T01:07:09.681Z,7.70
2022-08-28T01:07:52.807Z,8.63
2022-08-28T01:08:36.639Z,6.63
2022-08-28T01:09:20.790Z,7.13
2022-08-28T01:10:05.563Z,7.68
2022-08-28T01:10:53.556Z,5.68
2022-08-28T01:11:35.519Z,4.72
2022-08-28T01:12:21.855Z,6.53
2022-08-28T01:13:04.410Z,5.25
2022-08-28T01:13:48.465Z,6.32
2022-08-28T01:14:32.096Z,6.05
2022-08-28T01:15:17.966Z,6.68
2022-08-28T01:16:01.454Z,8.00
2022-08-28T01:16:43.602Z,5.20
2022-08-28T01:17:29.031Z,6.50
2022-08-28T01:18:15.835Z,6.78
2022-08-28T01:19:00.475Z,5.78
2022-08-28T01:19:55.473Z,6.10
2022-08-28T01:20:42.491Z,5.22
2022-08-28T01:21:30.890Z,5.93
2022-08-28T01:22:23.946Z,7.20
2022-08-28T01:23:24.440Z,7.72
2022-08-28T01:24:12.236Z,5.43
2022-08-28T01:24:57.787Z,7.05
2022-08-28T01:25:39.974Z,6.03
2022-08-28T01:26:22.264Z,7.63
2022-08-28T01:27:04.065Z,8.75
2022-08-28T01:27:46.053Z,7.05
2022-08-28T01:28:27.798Z,6.50
2022-08-28T01:29:11.426Z,7.82
2022-08-28T01:29:53.610Z,7.60
2022-08-28T01:30:35.441Z,8.00
2022-08-28T01:31:17.716Z,5.75
2022-08-28T01:31:59.579Z,4.55
2022-08-28T01:32:45.515Z,5.00
2022-08-28T01:33:28.168Z,5.70
2022-08-28T01:34:12.918Z,4.95
2022-08-28T01:34:54.626Z,4.40
2022-08-28T01:35:40.857Z,5.85
2022-08-28T01:36:22.530Z,6.13
2022-08-28T01:37:04.297Z,7.15
2022-08-28T01:37:46.444Z,4.90
2022-08-28T01:38:28.141Z,4.40
2022-08-28T01:39:17.202Z,7.93
2022-08-28T01:40:01.161Z,5.53
2022-08-28T01:40:47.053Z,6.00
2022-08-28T01:41:29.612Z,8.30
2022-08-28T01:42:11.442Z,6.40
2022-08-28T01:42:53.201Z,5.53
2022-08-28T01:43:34.930Z,5.28
2022-08-28T01:44:18.328Z,5.18
2022-08-28T01:45:00.231Z,6.38
2022-08-28T01:45:44.949Z,5.90
2022-08-28T01:46:26.990Z,8.23
2022-08-28T01:47:08.819Z,6.90
2022-08-28T01:47:51.389Z,4.65
2022-08-28T01:48:36.658Z,5.93
2022-08-28T01:49:19.346Z,4.65
2022-08-28T01:50:01.113Z,5.47
2022-08-28T01:50:43.432Z,5.20
2022-08-28T01:51:25.182Z,4.40
2022-08-28T01:52:06.950Z,4.70
2022-08-28T01:52:48.833Z,6.15
2022-08-28T01:53:33.131Z,7.00
2022-08-28T01:54:15.295Z,5.80
2022-08-28T01:54:57.594Z,6.50
2022-08-28T01:55:40.198Z,6.50
2022-08-28T01:56:22.213Z,7.40
2022-08-28T01:57:04.118Z,7.93
2022-08-28T01:57:49.626Z,7.28
2022-08-28T01:58:36.033Z,8.23
2022-08-28T01:59:19.850Z,8.90
2022-08-28T02:00:01.713Z,9.27
2022-08-28T02:00:43.723Z,11.07
2022-08-28T02:01:25.455Z,7.70
2022-08-28T02:02:07.368Z,6.30
2022-08-28T02:02:49.078Z,4.38
2022-08-28T02:03:31.047Z,6.55
2022-08-28T02:04:13.393Z,5.50
2022-08-28T02:04:55.191Z,4.88
2022-08-28T02:05:37.324Z,7.90
2022-08-28T02:06:19.317Z,10.23
2022-08-28T02:07:01.070Z,6.40
2022-08-28T02:07:42.746Z,4.70
2022-08-28T02:08:24.443Z,5.68
2022-08-28T02:09:06.857Z,6.80
2022-08-28T02:09:55.298Z,7.50
2022-08-28T02:10:39.383Z,5.28
2022-08-28T02:11:26.085Z,5.88
2022-08-28T02:12:07.874Z,5.40
2022-08-28T02:12:49.962Z,6.05
2022-08-28T02:13:32.002Z,8.32
2022-08-28T02:14:14.619Z,6.57
2022-08-28T02:14:56.321Z,8.90
2022-08-28T02:15:39.569Z,7.07
2022-08-28T02:16:21.397Z,6.38
2022-08-28T02:17:03.186Z,6.65
2022-08-28T02:17:44.914Z,5.60
2022-08-28T02:18:26.698Z,8.77
2022-08-28T02:19:08.458Z,6.40
2022-08-28T02:19:50.550Z,5.82
2022-08-28T02:20:33.894Z,6.30
2022-08-28T02:21:15.774Z,6.57
2022-08-28T02:21:57.534Z,5.82
2022-08-28T02:22:39.256Z,4.25
2022-08-28T02:23:21.486Z,6.90
2022-08-28T02:24:04.902Z,7.30
2022-08-28T02:24:46.719Z,6.65
2022-08-28T02:25:29.008Z,4.60
2022-08-28T02:26:12.921Z,5.63
2022-08-28T02:26:54.646Z,6.50
2022-08-28T02:27:36.982Z,6.22
2022-08-28T02:28:18.683Z,6.35
2022-08-28T02:29:00.629Z,6.65
2022-08-28T02:29:42.389Z,6.28
2022-08-28T02:30:24.141Z,6.03
2022-08-28T02:31:09.273Z,8.40
2022-08-28T02:31:51.041Z,6.95
2022-08-28T02:32:32.895Z,4.88
2022-08-28T02:33:16.125Z,5.35
2022-08-28T02:33:57.838Z,5.32
2022-08-28T02:34:40.353Z,7.40
2022-08-28T02:35:23.086Z,6.95
2022-08-28T02:36:07.582Z,6.77
2022-08-28T02:36:49.916Z,5.32
2022-08-28T02:37:31.609Z,3.80
2022-08-28T02:38:14.156Z,5.47
2022-08-28T02:38:57.897Z,7.97
2022-08-28T02:39:40.683Z,6.72
2022-08-28T02:40:24.076Z,5.47
2022-08-28T02:41:07.055Z,7.43
2022-08-28T02:41:48.747Z,7.18
2022-08-28T02:42:30.747Z,8.13
2022-08-28T02:43:12.490Z,8.20
2022-08-28T02:43:54.913Z,6.57
2022-08-28T02:44:36.712Z,5.78
2022-08-28T02:45:20.687Z,6.78
2022-08-28T02:46:03.409Z,8.00
2022-08-28T02:46:45.194Z,7.50
2022-08-28T02:47:27.024Z,8.55
2022-08-28T02:48:15.682Z,7.72
2022-08-28T02:48:58.883Z,7.10
2022-08-28T02:49:41.271Z,9.38
2022-08-28T02:50:24.023Z,6.60
2022-08-28T02:51:11.478Z,7.05
2022-08-28T02:51:56.574Z,5.80
2022-08-28T02:52:38.435Z,9.57
2022-08-28T02:53:20.102Z,9.52
2022-08-28T02:54:02.769Z,9.35
2022-08-28T02:54:46.205Z,7.53
2022-08-28T02:55:31.309Z,6.70
2022-08-28T02:56:15.794Z,5.40
2022-08-28T02:56:58.559Z,6.63
2022-08-28T02:57:41.417Z,6.20
2022-08-28T02:58:23.373Z,5.43
2022-08-28T02:59:05.074Z,6.07
2022-08-28T02:59:48.116Z,6.82
2022-08-28T03:00:29.929Z,7.88
2022-08-28T03:01:13.402Z,5.00
2022-08-28T03:01:55.683Z,4.70
2022-08-28T03:02:37.914Z,5.53
2022-08-28T03:03:20.871Z,6.53
2022-08-28T03:04:03.043Z,5.43
2022-08-28T03:04:44.889Z,7.10
2022-08-28T03:05:26.867Z,7.03
2022-08-28T03:06:11.375Z,6.03
2022-08-28T03:06:53.261Z,7.55
2022-08-28T03:07:35.258Z,6.63
2022-08-28T03:08:17.877Z,7.40
2022-08-28T03:09:00.106Z,7.28
2022-08-28T03:09:43.559Z,8.02
2022-08-28T03:10:25.283Z,8.00
2022-08-28T03:11:07.110Z,9.32
2022-08-28T03:11:48.817Z,6.28
2022-08-28T03:12:30.557Z,4.63
2022-08-28T03:13:26.496Z,6.55
2022-08-28T03:14:09.097Z,4.18
2022-08-28T03:14:52.590Z,5.70
2022-08-28T03:15:34.353Z,7.70
2022-08-28T03:16:16.504Z,8.60
2022-08-28T03:16:58.289Z,8.07
2022-08-28T03:17:40.324Z,8.02
2022-08-28T03:18:25.544Z,10.90
2022-08-28T03:19:07.354Z,11.02
2022-08-28T03:19:50.173Z,6.13
2022-08-28T03:20:31.898Z,5.75
2022-08-28T03:21:14.246Z,5.40
2022-08-28T03:21:56.666Z,8.77
2022-08-28T03:22:57.205Z,8.55
2022-08-28T03:23:39.678Z,6.90
2022-08-28T03:24:21.437Z,7.65
2022-08-28T03:25:03.754Z,5.10
2022-08-28T03:25:45.518Z,9.90
2022-08-28T03:26:27.213Z,7.60
2022-08-28T03:27:09.022Z,8.50
2022-08-28T03:27:51.039Z,9.07
2022-08-28T03:28:36.433Z,8.40
2022-08-28T03:29:18.183Z,6.38
2022-08-28T03:30:00.136Z,6.65
2022-08-28T03:30:41.913Z,8.32
2022-08-28T03:31:26.587Z,9.80
2022-08-28T03:32:08.294Z,6.15
2022-08-28T03:32:50.270Z,7.65
2022-08-28T03:33:32.607Z,8.45
2022-08-28T03:34:14.353Z,6.75
2022-08-28T03:34:56.029Z,8.15
2022-08-28T03:35:37.730Z,8.13
2022-08-28T03:36:25.071Z,6.75
2022-08-28T03:37:06.783Z,5.53
2022-08-28T03:37:50.101Z,7.45
2022-08-28T03:38:32.246Z,9.38
2022-08-28T03:39:14.035Z,7.10
2022-08-28T03:39:55.790Z,9.15
2022-08-28T03:40:42.520Z,8.48
2022-08-28T03:41:25.846Z,8.25
2022-08-28T03:42:07.747Z,9.43
2022-08-28T03:42:53.155Z,12.48
2022-08-28T03:43:35.521Z,7.88
2022-08-28T03:44:17.229Z,8.18
2022-08-28T03:44:58.947Z,8.98
2022-08-28T03:45:41.391Z,10.70
2022-08-28T03:46:25.016Z,6.93
2022-08-28T03:47:06.816Z,8.55
2022-08-28T03:47:48.827Z,10.48
2022-08-28T03:48:36.717Z,11.38
2022-08-28T03:49:18.464Z,10.02
2022-08-28T03:50:01.410Z,11.25
2022-08-28T03:50:43.134Z,10.05
2022-08-28T03:51:29.592Z,6.20
2022-08-28T03:52:12.343Z,7.70
2022-08-28T03:52:54.147Z,9.82
2022-08-28T03:53:36.162Z,7.75
2022-08-28T03:54:18.974Z,8.98
2022-08-28T03:55:01.574Z,6.30
2022-08-28T03:55:43.329Z,7.65
2022-08-28T03:56:27.324Z,10.43
2022-08-28T03:57:09.013Z,10.70
2022-08-28T03:57:51.516Z,11.40
2022-08-28T03:58:33.455Z,6.25
2022-08-28T03:59:15.750Z,8.40
2022-08-28T03:59:57.481Z,7.18
2022-08-28T04:00:40.178Z,9.02
2022-08-28T04:01:22.114Z,10.90
2022-08-28T04:02:03.945Z,6.72
2022-08-28T04:02:46.201Z,7.97
2022-08-28T04:03:28.271Z,8.95
2022-08-28T04:04:10.013Z,10.70
2022-08-28T04:04:51.807Z,12.65
2022-08-28T04:05:34.987Z,7.78
2022-08-28T04:06:16.881Z,14.60
2022-08-28T04:06:58.613Z,9.57
2022-08-28T04:07:40.427Z,7.00
2022-08-28T04:08:23.037Z,9.88
2022-08-28T04:09:05.452Z,9.10
2022-08-28T04:09:47.469Z,11.63
2022-08-28T04:10:29.583Z,8.35
2022-08-28T04:11:11.432Z,8.30
2022-08-28T04:11:54.010Z,13.52
2022-08-28T04:12:37.012Z,10.38
2022-08-28T04:13:20.263Z,8.52
2022-08-28T04:14:01.962Z,10.07
2022-08-28T04:14:43.725Z,11.40
2022-08-28T04:15:25.929Z,11.38
2022-08-28T04:16:11.057Z,8.82
2022-08-28T04:16:53.065Z,8.30
2022-08-28T04:17:37.964Z,12.57
2022-08-28T04:18:19.682Z,9.48
2022-08-28T04:19:01.426Z,8.48
2022-08-28T04:19:44.868Z,9.73
2022-08-28T04:20:27.524Z,8.73
2022-08-28T04:21:12.369Z,8.93
2022-08-28T04:21:54.099Z,9.65
2022-08-28T04:22:37.192Z,9.45
2022-08-28T04:23:18.939Z,9.32
2022-08-28T04:24:00.640Z,14.15
2022-08-28T04:24:42.411Z,11.50
2022-08-28T04:25:24.345Z,10.13
2022-08-28T04:26:12.443Z,7.97
2022-08-28T04:26:54.343Z,10.93
2022-08-28T04:27:36.542Z,8.07
2022-08-28T04:28:18.293Z,8.55
2022-08-28T04:28:59.978Z,15.55
2022-08-28T04:29:41.693Z,11.25
2022-08-28T04:30:23.869Z,8.55
2022-08-28T04:31:05.865Z,8.05
2022-08-28T04:31:47.651Z,11.05
2022-08-28T04:32:29.435Z,11.30
2022-08-28T04:33:11.531Z,8.90
2022-08-28T04:33:53.208Z,7.53
2022-08-28T04:34:37.746Z,9.45
2022-08-28T04:35:19.626Z,9.63
2022-08-28T04:36:07.499Z,10.20
2022-08-28T04:36:51.800Z,11.20
2022-08-28T04:37:33.865Z,9.95
2022-08-28T04:38:15.926Z,7.85
2022-08-28T04:38:58.511Z,7.75
2022-08-28T04:39:40.245Z,13.35
2022-08-28T04:40:22.011Z,9.27
2022-08-28T04:41:06.111Z,8.57
2022-08-28T04:41:49.802Z,10.15
2022-08-28T04:42:31.824Z,9.20
2022-08-28T04:43:13.776Z,10.82
2022-08-28T04:43:57.445Z,13.27
2022-08-28T04:44:39.181Z,9.93
2022-08-28T04:45:21.576Z,10.10
2022-08-28T04:46:05.581Z,10.95
2022-08-28T04:46:47.352Z,13.68
2022-08-28T04:47:30.970Z,11.05
2022-08-28T04:48:14.409Z,9.65
2022-08-28T04:48:56.686Z,11.50
2022-08-28T04:49:38.413Z,10.88
2022-08-28T04:50:20.139Z,12.40
2022-08-28T04:51:04.581Z,11.45
2022-08-28T04:51:47.030Z,9.75
2022-08-28T04:52:28.908Z,8.50
2022-08-28T04:53:11.342Z,8.82
2022-08-28T04:53:53.087Z,10.13
2022-08-28T04:54:34.948Z,12.35
2022-08-28T04:55:18.313Z,10.10
2022-08-28T04:56:15.925Z,14.45
2022-08-28T04:56:57.619Z,12.35
2022-08-28T04:57:39.411Z,8.57
2022-08-28T04:58:23.977Z,13.45
2022-08-28T04:59:06.810Z,9.93
2022-08-28T04:59:48.563Z,9.18
2022-08-28T05:00:30.272Z,9.80
2022-08-28T05:01:16.136Z,11.55
2022-08-28T05:01:57.971Z,13.27
2022-08-28T05:02:39.803Z,13.77
2022-08-28T05:03:22.235Z,12.65
2022-08-28T05:04:04.153Z,11.45
2022-08-28T05:04:45.921Z,9.85
2022-08-28T05:05:28.187Z,8.98
2022-08-28T05:06:11.977Z,9.30
2022-08-28T05:06:53.806Z,8.32
2022-08-28T05:07:35.509Z,6.88
2022-08-28T05:08:20.333Z,8.70
2022-08-28T05:09:04.010Z,13.63
2022-08-28T05:09:46.060Z,10.75
2022-08-28T05:10:27.885Z,9.95
2022-08-28T05:11:32.671Z,12.18
2022-08-28T05:12:17.399Z,12.02
2022-08-28T05:12:59.114Z,9.32
2022-08-28T05:13:41.824Z,10.88
2022-08-28T05:14:23.506Z,12.40
2022-08-28T05:15:05.865Z,13.70
2022-08-28T05:15:50.345Z,10.02
2022-08-28T05:16:34.601Z,11.00
2022-08-28T05:17:16.500Z,12.05
2022-08-28T05:17:59.219Z,8.40
2022-08-28T05:18:41.585Z,11.80
2022-08-28T05:19:25.451Z,11.30
2022-08-28T05:20:07.637Z,13.95
2022-08-28T05:20:49.346Z,10.02
2022-08-28T05:21:31.086Z,10.60
2022-08-28T05:22:12.792Z,15.05
2022-08-28T05:22:54.489Z,12.00
2022-08-28T05:23:36.158Z,8.93
2022-08-28T05:24:18.639Z,10.48
2022-08-28T05:25:03.067Z,13.13
2022-08-28T05:25:47.851Z,11.00
2022-08-28T05:26:30.068Z,11.85
2022-08-28T05:27:12.006Z,13.02
2022-08-28T05:27:54.121Z,11.02
2022-08-28T05:28:36.703Z,10.88
2022-08-28T05:29:18.504Z,9.20
2022-08-28T05:30:02.180Z,11.38
2022-08-28T05:30:44.623Z,10.85
2022-08-28T05:31:28.990Z,12.05
2022-08-28T05:32:10.766Z,11.98
2022-08-28T05:32:52.529Z,14.30
2022-08-28T05:33:34.225Z,14.73
2022-08-28T05:34:17.007Z,13.80
2022-08-28T05:34:58.852Z,11.23
2022-08-28T05:35:43.242Z,12.80
2022-08-28T05:36:32.538Z,14.25
2022-08-28T05:37:19.441Z,10.27
2022-08-28T05:38:01.463Z,8.82
2022-08-28T05:38:44.316Z,8.60
2022-08-28T05:39:26.078Z,12.60
2022-08-28T05:40:10.240Z,11.52
2022-08-28T05:40:51.963Z,11.18
2022-08-28T05:41:34.178Z,14.32
2022-08-28T05:42:15.889Z,13.65
2022-08-28T05:42:57.866Z,12.52
2022-08-28T05:43:39.611Z,10.88
2022-08-28T05:44:21.382Z,11.60
2022-08-28T05:45:03.487Z,17.70
2022-08-28T05:45:45.397Z,14.95
2022-08-28T05:46:30.872Z,12.77
2022-08-28T05:47:13.015Z,13.90
2022-08-28T05:47:54.767Z,12.57
2022-08-28T05:48:39.709Z,11.45
2022-08-28T05:49:22.070Z,10.68
2022-08-28T05:50:04.068Z,11.80
2022-08-28T05:50:47.297Z,11.90
2022-08-28T05:51:29.428Z,9.05
2022-08-28T05:52:11.088Z,11.18
2022-08-28T05:52:52.774Z,13.13
2022-08-28T05:53:36.218Z,12.95
2022-08-28T05:54:18.206Z,13.32
2022-08-28T05:55:00.613Z,10.65
2022-08-28T05:55:42.381Z,10.40
2022-08-28T05:56:29.474Z,11.43
2022-08-28T05:57:11.192Z,12.45
2022-08-28T05:57:52.886Z,13.05
2022-08-28T05:58:35.187Z,12.68
2022-08-28T05:59:17.238Z,12.70
2022-08-28T05:59:58.970Z,12.90
2022-08-28T06:00:40.650Z,10.05
2022-08-28T06:01:31.118Z,10.73
2022-08-28T06:02:12.869Z,13.90
2022-08-28T06:02:54.754Z,12.23
2022-08-28T06:03:37.567Z,16.77
2022-08-28T06:04:25.214Z,13.55
2022-08-28T06:05:07.721Z,9.90
2022-08-28T06:05:55.933Z,10.38
2022-08-28T06:06:39.759Z,14.30
2022-08-28T06:07:21.478Z,14.45
2022-08-28T06:08:03.344Z,12.18
2022-08-28T06:08:58.587Z,11.93
2022-08-28T06:09:40.867Z,11.95
2022-08-28T06:10:22.574Z,10.30
2022-08-28T06:11:05.558Z,10.48
2022-08-28T06:11:49.678Z,10.05
2022-08-28T06:12:32.014Z,15.70
2022-08-28T06:13:14.030Z,12.73
2022-08-28T06:13:55.787Z,11.07
2022-08-28T06:14:38.418Z,11.68
2022-08-28T06:15:20.192Z,9.90
2022-08-28T06:16:02.295Z,11.15
2022-08-28T06:16:47.000Z,13.40
2022-08-28T06:17:28.741Z,14.30
2022-08-28T06:18:12.513Z,12.23
2022-08-28T06:18:55.331Z,11.48
2022-08-28T06:19:41.383Z,10.25
2022-08-28T06:20:23.327Z,12.85
2022-08-28T06:21:05.178Z,12.30
2022-08-28T06:21:48.141Z,11.50
2022-08-28T06:22:29.879Z,9.73
2022-08-28T06:23:21.366Z,14.40
2022-08-28T06:24:06.170Z,13.55
2022-08-28T06:24:47.899Z,10.88
2022-08-28T06:25:29.647Z,10.60
2022-08-28T06:26:11.587Z,10.52
2022-08-28T06:26:53.653Z,11.38
2022-08-28T06:27:40.025Z,14.43
2022-08-28T06:28:25.353Z,10.90
2022-08-28T06:29:10.561Z,14.07
2022-08-28T06:29:52.346Z,12.98
2022-08-28T06:30:40.117Z,11.07
2022-08-28T06:31:26.444Z,13.38
2022-08-28T06:32:09.167Z,10.10
2022-08-28T06:32:50.985Z,9.48
2022-08-28T06:33:34.016Z,9.57
2022-08-28T06:34:15.801Z,12.63
2022-08-28T06:34:57.503Z,14.32
2022-08-28T06:35:44.323Z,12.65
2022-08-28T06:36:28.666Z,12.15
2022-08-28T06:37:10.539Z,13.55
2022-08-28T06:37:52.254Z,16.35
2022-08-28T06:38:34.037Z,16.90
2022-08-28T06:39:15.780Z,12.30
2022-08-28T06:39:57.606Z,13.07
2022-08-28T06:40:48.940Z,12.55
2022-08-28T06:41:32.714Z,13.88
2022-08-28T06:42:14.466Z,13.45
2022-08-28T06:42:56.212Z,11.05
2022-08-28T06:43:37.962Z,11.35
2022-08-28T06:44:21.642Z,12.90
2022-08-28T06:45:03.777Z,12.48
2022-08-28T06:45:47.180Z,10.10
2022-08-28T06:46:30.457Z,16.75
2022-08-28T06:47:12.337Z,9.68
2022-08-28T06:47:54.031Z,11.57
2022-08-28T06:48:36.718Z,14.80
2022-08-28T06:49:20.491Z,11.50
2022-08-28T06:50:02.187Z,12.10
2022-08-28T06:50:46.541Z,16.77
2022-08-28T06:51:28.259Z,12.63
2022-08-28T06:52:09.972Z,10.45
2022-08-28T06:52:51.674Z,15.32
2022-08-28T06:53:33.934Z,15.18
2022-08-28T06:54:22.143Z,11.43
2022-08-28T06:55:05.058Z,14.55
2022-08-28T06:56:09.362Z,14.23
2022-08-28T06:56:52.493Z,10.50
2022-08-28T06:57:34.183Z,9.10
2022-08-28T06:58:16.054Z,9.90
2022-08-28T06:58:59.024Z,12.07
2022-08-28T06:59:40.792Z,12.57
2022-08-28T07:00:22.481Z,12.18
2022-08-28T07:01:35.180Z,10.38
2022-08-28T07:02:17.096Z,9.23
2022-08-28T07:02:59.604Z,10.15
2022-08-28T07:03:44.202Z,10.90
2022-08-28T07:04:26.300Z,11.85
2022-08-28T07:05:08.693Z,12.75
2022-08-28T07:05:56.801Z,10.68
2022-08-28T07:06:41.246Z,12.02
2022-08-28T07:07:31.608Z,13.00
2022-08-28T07:08:13.862Z,9.60
2022-08-28T07:08:55.772Z,10.02
2022-08-28T07:09:37.478Z,10.60
2022-08-28T07:10:19.352Z,10.45
2022-08-28T07:11:13.890Z,9.95
2022-08-28T07:11:55.661Z,12.00
2022-08-28T07:12:37.569Z,13.40
2022-08-28T07:13:20.485Z,10.75
2022-08-28T07:14:03.022Z,9.45
2022-08-28T07:14:44.915Z,9.85
2022-08-28T07:15:27.236Z,11.13
2022-08-28T07:16:09.503Z,14.25
2022-08-28T07:16:51.772Z,9.88
2022-08-28T07:17:33.900Z,9.02
2022-08-28T07:18:17.349Z,8.55
2022-08-28T07:19:02.579Z,9.70
2022-08-28T07:19:44.285Z,10.70
2022-08-28T07:20:25.974Z,9.73
2022-08-28T07:21:12.087Z,9.88
2022-08-28T07:21:55.311Z,9.60
2022-08-28T07:22:38.169Z,12.23
2022-08-28T07:23:19.850Z,12.20
2022-08-28T07:24:03.425Z,8.25
2022-08-28T07:24:45.190Z,12.65
2022-08-28T07:25:26.904Z,11.07
2022-08-28T07:26:12.218Z,8.75
2022-08-28T07:26:54.305Z,11.52
2022-08-28T07:27:36.302Z,11.30
2022-08-28T07:28:18.664Z,9.85
2022-08-28T07:29:10.268Z,11.90
2022-08-28T07:29:53.074Z,13.20
2022-08-28T07:30:35.374Z,11.07
2022-08-28T07:31:20.670Z,12.98
2022-08-28T07:32:03.870Z,10.25
2022-08-28T07:32:49.151Z,9.65
2022-08-28T07:33:32.570Z,8.48
2022-08-28T07:34:16.013Z,13.25
2022-08-28T07:34:57.703Z,11.15
2022-08-28T07:35:44.102Z,10.18
2022-08-28T07:36:29.599Z,6.63
2022-08-28T07:37:15.225Z,10.60
2022-08-28T07:37:57.933Z,13.48
2022-08-28T07:38:39.696Z,8.75
2022-08-28T07:39:21.408Z,10.93
2022-08-28T07:40:03.783Z,14.48
2022-08-28T07:40:47.258Z,10.40
2022-08-28T07:41:31.100Z,8.65
2022-08-28T07:42:35.520Z,12.07
2022-08-28T07:43:36.449Z,9.30
2022-08-28T07:44:36.837Z,9.55
2022-08-28T07:45:18.606Z,10.50
2022-08-28T07:46:01.714Z,8.48
2022-08-28T07:46:44.396Z,12.77
2022-08-28T07:47:32.907Z,9.45
2022-08-28T07:48:15.172Z,11.13
2022-08-28T07:49:01.333Z,11.88
2022-08-28T07:49:44.348Z,11.85
2022-08-28T07:50:26.049Z,14.75
2022-08-28T07:51:09.446Z,9.98
2022-08-28T07:51:54.229Z,9.00
2022-08-28T07:52:37.349Z,9.98
2022-08-28T07:53:19.287Z,10.48
2022-08-28T07:54:04.023Z,7.95
2022-08-28T07:54:45.775Z,8.73
2022-08-28T07:55:29.697Z,14.35
2022-08-28T07:56:11.550Z,9.85
2022-08-28T07:56:53.655Z,7.95
2022-08-28T07:57:35.909Z,9.77
2022-08-28T07:58:19.451Z,12.95
2022-08-28T07:59:03.288Z,14.70
2022-08-28T07:59:45.544Z,12.65
2022-08-28T08:00:27.249Z,7.68
2022-08-28T08:01:09.100Z,9.48
2022-08-28T08:01:51.501Z,14.48
2022-08-28T08:02:33.317Z,12.23
2022-08-28T08:03:15.282Z,16.00
2022-08-28T08:04:01.391Z,12.85
2022-08-28T08:04:44.470Z,12.85
2022-08-28T08:05:26.194Z,11.60
2022-08-28T08:06:08.028Z,11.38
2022-08-28T08:06:57.032Z,9.93
2022-08-28T08:07:39.910Z,10.05
2022-08-28T08:08:25.951Z,9.57
2022-08-28T08:09:13.404Z,8.35
2022-08-28T08:09:55.098Z,7.65
2022-08-28T08:10:39.502Z,8.50
2022-08-28T08:11:23.593Z,11.00
2022-08-28T08:12:07.937Z,11.40
2022-08-28T08:12:52.565Z,7.72
2022-08-28T08:13:38.050Z,14.93
2022-08-28T08:14:19.798Z,13.63
2022-08-28T08:15:01.588Z,10.00
2022-08-28T08:15:44.076Z,10.50
2022-08-28T08:16:26.270Z,9.13
2022-08-28T08:17:09.451Z,12.85
2022-08-28T08:17:51.718Z,10.65
2022-08-28T08:18:33.766Z,11.45
2022-08-28T08:19:16.850Z,7.57
2022-08-28T08:19:58.582Z,11.65
2022-08-28T08:20:40.273Z,9.32
2022-08-28T08:21:26.054Z,11.70
2022-08-28T08:22:10.103Z,11.77
2022-08-28T08:22:51.973Z,11.68
2022-08-28T08:23:34.934Z,10.95
2022-08-28T08:24:20.919Z,9.10
2022-08-28T08:25:05.835Z,11.30
2022-08-28T08:25:59.171Z,7.70
2022-08-28T08:26:45.541Z,8.20
2022-08-28T08:27:43.040Z,8.73
2022-08-28T08:28:25.461Z,8.05
2022-08-28T08:29:07.231Z,9.85
2022-08-28T08:29:49.102Z,10.82
2022-08-28T08:30:30.925Z,14.30
2022-08-28T08:31:15.678Z,9.00
2022-08-28T08:32:05.765Z,12.30
2022-08-28T08:32:47.652Z,8.38
2022-08-28T08:33:29.353Z,8.50
2022-08-28T08:34:11.125Z,8.55
2022-08-28T08:34:55.983Z,8.95
2022-08-28T08:35:37.705Z,9.52
2022-08-28T08:36:21.498Z,7.80
2022-08-28T08:37:03.625Z,9.63
2022-08-28T08:37:45.776Z,10.23
2022-08-28T08:38:31.795Z,11.13
2022-08-28T08:39:13.545Z,9.40
2022-08-28T08:39:55.692Z,7.15
2022-08-28T08:40:37.493Z,9.30
2022-08-28T08:41:48.507Z,10.27
2022-08-28T08:42:33.157Z,11.80
2022-08-28T08:43:18.306Z,8.57
2022-08-28T08:44:09.904Z,10.95
2022-08-28T08:44:53.668Z,8.40
2022-08-28T08:45:37.733Z,9.98
2022-08-28T08:46:25.949Z,11.45
2022-08-28T08:47:26.504Z,7.72
2022-08-28T08:48:13.943Z,11.13
2022-08-28T08:48:56.874Z,15.00
2022-08-28T08:49:55.008Z,14.07
2022-08-28T08:50:36.726Z,14.50
2022-08-28T08:51:26.682Z,10.52
2022-08-28T08:52:11.334Z,7.55
2022-08-28T08:53:11.060Z,7.38
2022-08-28T08:54:10.366Z,12.05
2022-08-28T08:55:24.199Z,8.10
2022-08-28T08:56:06.482Z,9.20
2022-08-28T08:56:49.499Z,12.23
2022-08-28T08:57:32.320Z,10.45
2022-08-28T08:58:23.301Z,9.35
2022-08-28T08:59:10.634Z,8.55
2022-08-28T08:59:52.337Z,7.10
2022-08-28T09:00:41.070Z,7.15
2022-08-28T09:01:55.942Z,9.75
2022-08-28T09:02:47.924Z,7.38
2022-08-28T09:03:38.570Z,8.40
2022-08-28T09:04:46.917Z,9.60
2022-08-28T09:05:51.522Z,8.25
2022-08-28T09:06:45.163Z,8.90
2022-08-28T09:07:57.231Z,9.82
2022-08-28T09:08:47.917Z,10.07
2022-08-28T09:09:31.059Z,8.30
2022-08-28T09:10:14.329Z,9.70
2022-08-28T09:11:28.655Z,10.45
2022-08-28T09:12:17.249Z,10.70
2022-08-28T09:13:10.923Z,8.57
2022-08-28T09:14:11.772Z,13.18
2022-08-28T09:14:58.909Z,8.45
2022-08-28T09:15:47.522Z,8.52
2022-08-28T09:16:38.438Z,10.38
2022-08-28T09:17:24.256Z,9.38
2022-08-28T09:18:18.154Z,8.30
2022-08-28T09:19:01.440Z,10.80
2022-08-28T09:19:43.274Z,12.40
2022-08-28T09:20:32.446Z,7.78
2022-08-28T09:21:29.461Z,7.63
2022-08-28T09:22:11.533Z,8.73
2022-08-28T09:22:53.652Z,10.07
2022-08-28T09:23:36.014Z,10.57
2022-08-28T09:24:33.628Z,10.30
2022-08-28T09:25:53.052Z,9.77
2022-08-28T09:26:35.216Z,7.57
2022-08-28T09:27:31.914Z,8.75
2022-08-28T09:28:35.746Z,6.85
2022-08-28T09:29:19.240Z,10.43
2022-08-28T09:30:08.502Z,7.80
2022-08-28T09:31:07.560Z,13.05
2022-08-28T09:31:49.358Z,9.02
2022-08-28T09:32:57.891Z,8.60
2022-08-28T09:33:47.053Z,8.15
2022-08-28T09:34:36.745Z,10.13
2022-08-28T09:35:31.038Z,8.93
2022-08-28T09:36:37.233Z,7.78
2022-08-28T09:37:26.855Z,10.02
2022-08-28T09:38:22.009Z,8.50
2022-08-28T09:39:29.149Z,7.95
2022-08-28T09:40:19.367Z,11.75
2022-08-28T09:41:29.567Z,8.68
2022-08-28T09:42:32.626Z,9.75
2022-08-28T09:43:26.881Z,9.13